sensor_id;sensor_type;location;lat;lon;timestamp;P1;durP1;ratioP1;P2;durP2;ratioP2
19509;SDS011;9896;42.486;26.506;2022-10-30T00:00:40;24.43;;;15.17;;
19509;SDS011;9896;42.486;26.506;2022-10-30T00:03:08;30.83;;;14.67;;
19509;SDS011;9896;42.486;26.506;2022-10-30T00:05:36;23.63;;;15.10;;
19509;SDS011;9896;42.486;26.506;2022-10-30T00:08:04;31.20;;;15.20;;
19509;SDS011;9896;42.486;26.506;2022-10-30T00:10:29;23.73;;;13.33;;
19509;SDS011;9896;42.486;26.506;2022-10-30T00:12:57;26.67;;;14.60;;
19509;SDS011;9896;42.486;26.506;2022-10-30T00:15:22;21.73;;;12.07;;
19509;SDS011;9896;42.486;26.506;2022-10-30T00:17:48;22.27;;;12.83;;
19509;SDS011;9896;42.486;26.506;2022-10-30T00:20:13;21.67;;;12.17;;
19509;SDS011;9896;42.486;26.506;2022-10-30T00:22:39;21.90;;;12.70;;
19509;SDS011;9896;42.486;26.506;2022-10-30T00:25:08;20.60;;;13.40;;
19509;SDS011;9896;42.486;26.506;2022-10-30T00:27:34;24.20;;;14.07;;
19509;SDS011;9896;42.486;26.506;2022-10-30T00:30:00;31.77;;;15.07;;
19509;SDS011;9896;42.486;26.506;2022-10-30T00:32:26;29.00;;;15.00;;
19509;SDS011;9896;42.486;26.506;2022-10-30T00:34:52;26.00;;;14.80;;
19509;SDS011;9896;42.486;26.506;2022-10-30T00:37:17;23.67;;;13.87;;
19509;SDS011;9896;42.486;26.506;2022-10-30T00:39:43;25.93;;;13.17;;
19509;SDS011;9896;42.486;26.506;2022-10-30T00:42:12;20.93;;;12.33;;
19509;SDS011;9896;42.486;26.506;2022-10-30T00:49:55;21.73;;;10.60;;
19509;SDS011;9896;42.486;26.506;2022-10-30T00:52:25;17.80;;;10.77;;
19509;SDS011;9896;42.486;26.506;2022-10-30T00:54:54;18.50;;;10.23;;
19509;SDS011;9896;42.486;26.506;2022-10-30T00:57:21;22.10;;;10.10;;
19509;SDS011;9896;42.486;26.506;2022-10-30T00:59:48;18.10;;;9.87;;
19509;SDS011;9896;42.486;26.506;2022-10-30T01:02:14;14.90;;;9.50;;
19509;SDS011;9896;42.486;26.506;2022-10-30T01:04:40;16.00;;;9.70;;
19509;SDS011;9896;42.486;26.506;2022-10-30T01:07:09;15.33;;;8.57;;
19509;SDS011;9896;42.486;26.506;2022-10-30T01:09:38;16.13;;;9.30;;
19509;SDS011;9896;42.486;26.506;2022-10-30T01:12:04;17.73;;;9.40;;
19509;SDS011;9896;42.486;26.506;2022-10-30T01:14:29;17.50;;;9.80;;
19509;SDS011;9896;42.486;26.506;2022-10-30T01:19:47;17.27;;;9.73;;
19509;SDS011;9896;42.486;26.506;2022-10-30T01:28:08;17.27;;;9.80;;
19509;SDS011;9896;42.486;26.506;2022-10-30T01:30:52;19.23;;;10.20;;
19509;SDS011;9896;42.486;26.506;2022-10-30T01:33:39;18.50;;;10.70;;
19509;SDS011;9896;42.486;26.506;2022-10-30T01:39:14;15.73;;;9.60;;
19509;SDS011;9896;42.486;26.506;2022-10-30T01:41:43;17.30;;;10.00;;
19509;SDS011;9896;42.486;26.506;2022-10-30T01:44:25;19.37;;;11.17;;
19509;SDS011;9896;42.486;26.506;2022-10-30T01:47:00;20.23;;;10.17;;
19509;SDS011;9896;42.486;26.506;2022-10-30T01:50:20;17.33;;;10.77;;
19509;SDS011;9896;42.486;26.506;2022-10-30T01:52:54;20.30;;;10.97;;
19509;SDS011;9896;42.486;26.506;2022-10-30T01:58:19;16.53;;;9.60;;
19509;SDS011;9896;42.486;26.506;2022-10-30T02:00:50;21.37;;;11.07;;
19509;SDS011;9896;42.486;26.506;2022-10-30T02:03:20;20.30;;;11.33;;
19509;SDS011;9896;42.486;26.506;2022-10-30T02:05:50;24.90;;;11.70;;
19509;SDS011;9896;42.486;26.506;2022-10-30T02:08:16;18.47;;;11.37;;
19509;SDS011;9896;42.486;26.506;2022-10-30T02:10:43;21.73;;;11.27;;
19509;SDS011;9896;42.486;26.506;2022-10-30T02:13:11;20.13;;;11.37;;
19509;SDS011;9896;42.486;26.506;2022-10-30T02:15:36;18.23;;;10.90;;
19509;SDS011;9896;42.486;26.506;2022-10-30T02:18:02;18.87;;;11.10;;
19509;SDS011;9896;42.486;26.506;2022-10-30T02:20:28;18.67;;;11.20;;
19509;SDS011;9896;42.486;26.506;2022-10-30T02:22:54;24.40;;;11.67;;
19509;SDS011;9896;42.486;26.506;2022-10-30T02:25:19;20.67;;;11.40;;
19509;SDS011;9896;42.486;26.506;2022-10-30T02:27:45;23.70;;;11.67;;
19509;SDS011;9896;42.486;26.506;2022-10-30T02:30:10;19.47;;;11.67;;
19509;SDS011;9896;42.486;26.506;2022-10-30T02:32:36;22.40;;;11.97;;
19509;SDS011;9896;42.486;26.506;2022-10-30T02:35:02;20.40;;;11.37;;
19509;SDS011;9896;42.486;26.506;2022-10-30T02:37:29;22.37;;;11.97;;
19509;SDS011;9896;42.486;26.506;2022-10-30T02:39:56;24.00;;;12.33;;
19509;SDS011;9896;42.486;26.506;2022-10-30T02:42:21;23.93;;;11.70;;
19509;SDS011;9896;42.486;26.506;2022-10-30T02:44:47;20.13;;;12.67;;
19509;SDS011;9896;42.486;26.506;2022-10-30T02:47:13;21.57;;;11.53;;
19509;SDS011;9896;42.486;26.506;2022-10-30T02:49:38;19.50;;;11.37;;
19509;SDS011;9896;42.486;26.506;2022-10-30T02:52:05;20.60;;;11.57;;
19509;SDS011;9896;42.486;26.506;2022-10-30T02:54:31;23.77;;;13.10;;
19509;SDS011;9896;42.486;26.506;2022-10-30T02:56:57;20.47;;;12.80;;
19509;SDS011;9896;42.486;26.506;2022-10-30T02:59:23;23.63;;;13.80;;
19509;SDS011;9896;42.486;26.506;2022-10-30T03:01:49;23.00;;;12.50;;
19509;SDS011;9896;42.486;26.506;2022-10-30T03:04:14;23.43;;;11.90;;
19509;SDS011;9896;42.486;26.506;2022-10-30T03:06:40;25.20;;;13.10;;
19509;SDS011;9896;42.486;26.506;2022-10-30T03:09:05;23.40;;;12.97;;
19509;SDS011;9896;42.486;26.506;2022-10-30T03:11:32;25.77;;;12.60;;
19509;SDS011;9896;42.486;26.506;2022-10-30T03:13:58;25.37;;;13.70;;
19509;SDS011;9896;42.486;26.506;2022-10-30T03:16:24;20.50;;;11.30;;
19509;SDS011;9896;42.486;26.506;2022-10-30T03:18:54;24.57;;;12.70;;
19509;SDS011;9896;42.486;26.506;2022-10-30T03:21:21;19.07;;;11.07;;
19509;SDS011;9896;42.486;26.506;2022-10-30T03:23:48;22.60;;;11.80;;
19509;SDS011;9896;42.486;26.506;2022-10-30T03:26:17;22.63;;;10.97;;
19509;SDS011;9896;42.486;26.506;2022-10-30T03:28:44;23.67;;;12.63;;
19509;SDS011;9896;42.486;26.506;2022-10-30T03:31:11;25.60;;;13.93;;
19509;SDS011;9896;42.486;26.506;2022-10-30T03:33:39;24.03;;;13.03;;
19509;SDS011;9896;42.486;26.506;2022-10-30T03:36:05;23.50;;;12.50;;
19509;SDS011;9896;42.486;26.506;2022-10-30T03:38:32;23.10;;;12.90;;
19509;SDS011;9896;42.486;26.506;2022-10-30T03:40:58;24.30;;;13.07;;
19509;SDS011;9896;42.486;26.506;2022-10-30T03:43:23;26.97;;;13.20;;
19509;SDS011;9896;42.486;26.506;2022-10-30T03:45:50;22.77;;;12.53;;
19509;SDS011;9896;42.486;26.506;2022-10-30T03:48:20;21.43;;;12.70;;
19509;SDS011;9896;42.486;26.506;2022-10-30T03:50:47;22.50;;;12.70;;
19509;SDS011;9896;42.486;26.506;2022-10-30T03:53:12;25.23;;;13.43;;
19509;SDS011;9896;42.486;26.506;2022-10-30T03:55:39;23.53;;;12.43;;
19509;SDS011;9896;42.486;26.506;2022-10-30T03:58:05;25.13;;;13.40;;
19509;SDS011;9896;42.486;26.506;2022-10-30T04:00:31;23.60;;;13.87;;
19509;SDS011;9896;42.486;26.506;2022-10-30T04:02:57;25.33;;;13.60;;
19509;SDS011;9896;42.486;26.506;2022-10-30T04:05:23;24.23;;;12.70;;
19509;SDS011;9896;42.486;26.506;2022-10-30T04:08:03;25.63;;;13.87;;
19509;SDS011;9896;42.486;26.506;2022-10-30T04:10:31;22.33;;;12.73;;
19509;SDS011;9896;42.486;26.506;2022-10-30T04:13:04;23.40;;;12.77;;
19509;SDS011;9896;42.486;26.506;2022-10-30T04:15:31;23.83;;;12.47;;
19509;SDS011;9896;42.486;26.506;2022-10-30T04:17:57;24.30;;;13.03;;
19509;SDS011;9896;42.486;26.506;2022-10-30T04:20:23;25.13;;;13.10;;
19509;SDS011;9896;42.486;26.506;2022-10-30T04:22:54;21.40;;;12.60;;
19509;SDS011;9896;42.486;26.506;2022-10-30T04:25:23;21.50;;;12.57;;
19509;SDS011;9896;42.486;26.506;2022-10-30T04:27:49;23.70;;;13.23;;
19509;SDS011;9896;42.486;26.506;2022-10-30T04:30:17;24.30;;;13.00;;
19509;SDS011;9896;42.486;26.506;2022-10-30T04:32:49;23.97;;;13.77;;
19509;SDS011;9896;42.486;26.506;2022-10-30T04:35:16;22.40;;;12.83;;
19509;SDS011;9896;42.486;26.506;2022-10-30T04:37:42;22.60;;;12.17;;
19509;SDS011;9896;42.486;26.506;2022-10-30T04:40:15;22.67;;;12.40;;
19509;SDS011;9896;42.486;26.506;2022-10-30T04:42:41;19.73;;;11.97;;
19509;SDS011;9896;42.486;26.506;2022-10-30T04:45:06;25.50;;;13.73;;
19509;SDS011;9896;42.486;26.506;2022-10-30T04:47:32;25.90;;;13.33;;
19509;SDS011;9896;42.486;26.506;2022-10-30T04:49:57;26.33;;;14.40;;
19509;SDS011;9896;42.486;26.506;2022-10-30T04:52:23;32.13;;;14.37;;
19509;SDS011;9896;42.486;26.506;2022-10-30T04:54:48;32.03;;;14.23;;
19509;SDS011;9896;42.486;26.506;2022-10-30T04:57:14;31.47;;;15.73;;
19509;SDS011;9896;42.486;26.506;2022-10-30T04:59:39;28.47;;;13.53;;
19509;SDS011;9896;42.486;26.506;2022-10-30T05:02:05;26.03;;;13.43;;
19509;SDS011;9896;42.486;26.506;2022-10-30T05:04:30;28.07;;;15.67;;
19509;SDS011;9896;42.486;26.506;2022-10-30T05:06:58;27.47;;;14.60;;
19509;SDS011;9896;42.486;26.506;2022-10-30T05:09:24;30.43;;;14.60;;
19509;SDS011;9896;42.486;26.506;2022-10-30T05:11:49;28.50;;;14.80;;
19509;SDS011;9896;42.486;26.506;2022-10-30T05:14:15;30.27;;;14.60;;
19509;SDS011;9896;42.486;26.506;2022-10-30T05:16:40;25.60;;;14.20;;
19509;SDS011;9896;42.486;26.506;2022-10-30T05:19:06;24.67;;;13.80;;
19509;SDS011;9896;42.486;26.506;2022-10-30T05:21:31;25.40;;;15.03;;
19509;SDS011;9896;42.486;26.506;2022-10-30T05:23:57;30.50;;;15.43;;
19509;SDS011;9896;42.486;26.506;2022-10-30T05:26:22;29.07;;;15.57;;
19509;SDS011;9896;42.486;26.506;2022-10-30T05:28:47;33.43;;;16.93;;
19509;SDS011;9896;42.486;26.506;2022-10-30T05:31:13;27.10;;;15.63;;
19509;SDS011;9896;42.486;26.506;2022-10-30T05:33:38;28.03;;;15.33;;
19509;SDS011;9896;42.486;26.506;2022-10-30T05:36:04;31.27;;;15.93;;
19509;SDS011;9896;42.486;26.506;2022-10-30T05:38:29;28.63;;;16.13;;
19509;SDS011;9896;42.486;26.506;2022-10-30T05:40:55;28.80;;;16.07;;
19509;SDS011;9896;42.486;26.506;2022-10-30T05:43:20;29.33;;;16.00;;
19509;SDS011;9896;42.486;26.506;2022-10-30T05:45:49;27.07;;;15.87;;
19509;SDS011;9896;42.486;26.506;2022-10-30T05:48:14;25.37;;;14.93;;
19509;SDS011;9896;42.486;26.506;2022-10-30T05:50:40;25.63;;;15.43;;
19509;SDS011;9896;42.486;26.506;2022-10-30T05:53:05;24.43;;;15.70;;
19509;SDS011;9896;42.486;26.506;2022-10-30T05:55:31;25.40;;;15.60;;
19509;SDS011;9896;42.486;26.506;2022-10-30T05:58:01;27.37;;;16.00;;
19509;SDS011;9896;42.486;26.506;2022-10-30T06:00:29;22.97;;;14.67;;
19509;SDS011;9896;42.486;26.506;2022-10-30T06:03:09;24.23;;;14.67;;
19509;SDS011;9896;42.486;26.506;2022-10-30T06:05:37;22.80;;;13.83;;
19509;SDS011;9896;42.486;26.506;2022-10-30T06:08:06;20.53;;;13.30;;
19509;SDS011;9896;42.486;26.506;2022-10-30T06:10:32;22.57;;;14.80;;
19509;SDS011;9896;42.486;26.506;2022-10-30T06:13:02;20.03;;;14.20;;
19509;SDS011;9896;42.486;26.506;2022-10-30T06:15:29;22.00;;;14.57;;
19509;SDS011;9896;42.486;26.506;2022-10-30T06:17:55;18.87;;;12.70;;
19509;SDS011;9896;42.486;26.506;2022-10-30T06:20:22;17.17;;;12.03;;
19509;SDS011;9896;42.486;26.506;2022-10-30T06:22:53;16.40;;;12.20;;
19509;SDS011;9896;42.486;26.506;2022-10-30T06:25:22;19.60;;;13.10;;
19509;SDS011;9896;42.486;26.506;2022-10-30T06:27:48;18.23;;;11.83;;
19509;SDS011;9896;42.486;26.506;2022-10-30T06:30:14;18.90;;;12.43;;
19509;SDS011;9896;42.486;26.506;2022-10-30T06:32:40;19.20;;;13.00;;
19509;SDS011;9896;42.486;26.506;2022-10-30T06:35:05;21.53;;;13.67;;
19509;SDS011;9896;42.486;26.506;2022-10-30T06:37:32;20.93;;;13.70;;
19509;SDS011;9896;42.486;26.506;2022-10-30T06:39:57;24.80;;;14.57;;
19509;SDS011;9896;42.486;26.506;2022-10-30T06:42:23;24.97;;;15.17;;
19509;SDS011;9896;42.486;26.506;2022-10-30T06:44:48;23.60;;;14.97;;
19509;SDS011;9896;42.486;26.506;2022-10-30T06:47:15;24.83;;;13.90;;
19509;SDS011;9896;42.486;26.506;2022-10-30T06:49:41;26.20;;;14.97;;
19509;SDS011;9896;42.486;26.506;2022-10-30T06:52:07;27.83;;;14.33;;
19509;SDS011;9896;42.486;26.506;2022-10-30T06:54:32;22.37;;;14.47;;
19509;SDS011;9896;42.486;26.506;2022-10-30T06:56:58;24.73;;;15.13;;
19509;SDS011;9896;42.486;26.506;2022-10-30T06:59:23;30.83;;;16.93;;
19509;SDS011;9896;42.486;26.506;2022-10-30T07:01:49;27.70;;;15.83;;
19509;SDS011;9896;42.486;26.506;2022-10-30T07:04:14;33.43;;;15.70;;
19509;SDS011;9896;42.486;26.506;2022-10-30T07:06:40;30.47;;;16.67;;
19509;SDS011;9896;42.486;26.506;2022-10-30T07:09:05;27.53;;;16.57;;
19509;SDS011;9896;42.486;26.506;2022-10-30T07:11:31;29.53;;;14.93;;
19509;SDS011;9896;42.486;26.506;2022-10-30T07:13:56;27.97;;;14.07;;
19509;SDS011;9896;42.486;26.506;2022-10-30T07:16:22;27.50;;;14.63;;
19509;SDS011;9896;42.486;26.506;2022-10-30T07:18:47;25.53;;;14.43;;
19509;SDS011;9896;42.486;26.506;2022-10-30T07:21:13;26.60;;;14.47;;
19509;SDS011;9896;42.486;26.506;2022-10-30T07:23:39;26.57;;;14.60;;
19509;SDS011;9896;42.486;26.506;2022-10-30T07:26:05;25.10;;;13.73;;
19509;SDS011;9896;42.486;26.506;2022-10-30T07:28:31;23.63;;;14.17;;
19509;SDS011;9896;42.486;26.506;2022-10-30T07:30:57;26.27;;;15.40;;
19509;SDS011;9896;42.486;26.506;2022-10-30T07:33:23;22.27;;;13.37;;
19509;SDS011;9896;42.486;26.506;2022-10-30T07:35:49;23.97;;;14.40;;
19509;SDS011;9896;42.486;26.506;2022-10-30T07:38:14;24.63;;;14.57;;
19509;SDS011;9896;42.486;26.506;2022-10-30T07:40:41;25.23;;;14.40;;
19509;SDS011;9896;42.486;26.506;2022-10-30T07:43:07;26.23;;;14.13;;
19509;SDS011;9896;42.486;26.506;2022-10-30T07:45:37;27.60;;;13.97;;
19509;SDS011;9896;42.486;26.506;2022-10-30T07:48:04;26.87;;;14.63;;
19509;SDS011;9896;42.486;26.506;2022-10-30T07:50:30;23.00;;;13.73;;
19509;SDS011;9896;42.486;26.506;2022-10-30T07:52:59;23.70;;;13.67;;
19509;SDS011;9896;42.486;26.506;2022-10-30T07:55:24;19.83;;;12.47;;
19509;SDS011;9896;42.486;26.506;2022-10-30T07:57:50;23.03;;;13.67;;
19509;SDS011;9896;42.486;26.506;2022-10-30T08:00:15;25.70;;;12.90;;
19509;SDS011;9896;42.486;26.506;2022-10-30T08:02:42;18.50;;;12.17;;
19509;SDS011;9896;42.486;26.506;2022-10-30T08:05:07;19.40;;;12.53;;
19509;SDS011;9896;42.486;26.506;2022-10-30T08:07:33;18.63;;;12.27;;
19509;SDS011;9896;42.486;26.506;2022-10-30T08:10:00;23.73;;;13.57;;
19509;SDS011;9896;42.486;26.506;2022-10-30T08:12:26;21.17;;;12.00;;
19509;SDS011;9896;42.486;26.506;2022-10-30T08:14:52;23.93;;;13.23;;
19509;SDS011;9896;42.486;26.506;2022-10-30T08:17:18;18.97;;;12.53;;
19509;SDS011;9896;42.486;26.506;2022-10-30T08:19:44;18.03;;;12.17;;
19509;SDS011;9896;42.486;26.506;2022-10-30T08:22:13;21.40;;;12.33;;
19509;SDS011;9896;42.486;26.506;2022-10-30T08:24:39;17.17;;;12.17;;
19509;SDS011;9896;42.486;26.506;2022-10-30T08:27:04;19.50;;;12.10;;
19509;SDS011;9896;42.486;26.506;2022-10-30T08:29:30;19.23;;;11.43;;
19509;SDS011;9896;42.486;26.506;2022-10-30T08:31:56;19.20;;;11.50;;
19509;SDS011;9896;42.486;26.506;2022-10-30T08:34:22;18.37;;;11.07;;
19509;SDS011;9896;42.486;26.506;2022-10-30T08:36:50;18.50;;;11.13;;
19509;SDS011;9896;42.486;26.506;2022-10-30T08:39:16;15.17;;;10.50;;
19509;SDS011;9896;42.486;26.506;2022-10-30T08:41:43;19.40;;;10.53;;
19509;SDS011;9896;42.486;26.506;2022-10-30T08:44:08;18.13;;;10.40;;
19509;SDS011;9896;42.486;26.506;2022-10-30T08:46:34;15.63;;;10.07;;
19509;SDS011;9896;42.486;26.506;2022-10-30T08:49:00;13.80;;;10.03;;
19509;SDS011;9896;42.486;26.506;2022-10-30T08:51:26;16.47;;;10.73;;
19509;SDS011;9896;42.486;26.506;2022-10-30T08:53:51;18.40;;;10.60;;
19509;SDS011;9896;42.486;26.506;2022-10-30T08:56:17;15.77;;;10.37;;
19509;SDS011;9896;42.486;26.506;2022-10-30T08:58:43;12.83;;;9.53;;
19509;SDS011;9896;42.486;26.506;2022-10-30T09:01:09;15.03;;;9.57;;
19509;SDS011;9896;42.486;26.506;2022-10-30T09:03:34;17.00;;;9.50;;
19509;SDS011;9896;42.486;26.506;2022-10-30T09:06:00;15.17;;;10.80;;
19509;SDS011;9896;42.486;26.506;2022-10-30T09:08:26;16.37;;;10.40;;
19509;SDS011;9896;42.486;26.506;2022-10-30T09:10:56;17.30;;;10.83;;
19509;SDS011;9896;42.486;26.506;2022-10-30T09:13:23;16.10;;;9.43;;
19509;SDS011;9896;42.486;26.506;2022-10-30T09:15:49;15.30;;;9.17;;
19509;SDS011;9896;42.486;26.506;2022-10-30T09:18:15;11.40;;;8.27;;
19509;SDS011;9896;42.486;26.506;2022-10-30T09:20:41;12.87;;;8.07;;
19509;SDS011;9896;42.486;26.506;2022-10-30T09:23:07;13.23;;;8.70;;
19509;SDS011;9896;42.486;26.506;2022-10-30T09:25:32;13.57;;;8.67;;
19509;SDS011;9896;42.486;26.506;2022-10-30T09:27:58;11.63;;;7.27;;
19509;SDS011;9896;42.486;26.506;2022-10-30T09:30:25;11.57;;;7.57;;
19509;SDS011;9896;42.486;26.506;2022-10-30T09:32:54;13.53;;;8.90;;
19509;SDS011;9896;42.486;26.506;2022-10-30T09:35:21;9.77;;;6.87;;
19509;SDS011;9896;42.486;26.506;2022-10-30T09:37:47;10.70;;;7.20;;
19509;SDS011;9896;42.486;26.506;2022-10-30T09:40:21;10.57;;;7.33;;
19509;SDS011;9896;42.486;26.506;2022-10-30T09:42:53;14.27;;;7.23;;
19509;SDS011;9896;42.486;26.506;2022-10-30T09:45:54;11.03;;;7.37;;
19509;SDS011;9896;42.486;26.506;2022-10-30T09:51:36;10.83;;;7.13;;
19509;SDS011;9896;42.486;26.506;2022-10-30T09:57:15;11.30;;;7.53;;
19509;SDS011;9896;42.486;26.506;2022-10-30T10:05:21;10.07;;;6.93;;
19509;SDS011;9896;42.486;26.506;2022-10-30T10:07:54;10.27;;;6.80;;
19509;SDS011;9896;42.486;26.506;2022-10-30T10:10:25;13.10;;;6.87;;
19509;SDS011;9896;42.486;26.506;2022-10-30T10:13:01;11.60;;;7.47;;
19509;SDS011;9896;42.486;26.506;2022-10-30T10:15:43;13.50;;;7.90;;
19509;SDS011;9896;42.486;26.506;2022-10-30T10:18:18;10.13;;;7.00;;
19509;SDS011;9896;42.486;26.506;2022-10-30T10:20:49;13.73;;;7.27;;
19509;SDS011;9896;42.486;26.506;2022-10-30T10:23:25;13.83;;;7.60;;
19509;SDS011;9896;42.486;26.506;2022-10-30T10:26:01;12.23;;;6.67;;
19509;SDS011;9896;42.486;26.506;2022-10-30T10:43:02;10.90;;;8.37;;
19509;SDS011;9896;42.486;26.506;2022-10-30T10:51:06;13.10;;;8.30;;
19509;SDS011;9896;42.486;26.506;2022-10-30T10:54:01;11.80;;;8.13;;
19509;SDS011;9896;42.486;26.506;2022-10-30T10:56:35;11.10;;;7.63;;
19509;SDS011;9896;42.486;26.506;2022-10-30T10:59:04;13.50;;;7.30;;
19509;SDS011;9896;42.486;26.506;2022-10-30T11:01:38;8.30;;;6.30;;
19509;SDS011;9896;42.486;26.506;2022-10-30T11:06:50;11.10;;;5.63;;
19509;SDS011;9896;42.486;26.506;2022-10-30T11:09:19;8.87;;;5.27;;
19509;SDS011;9896;42.486;26.506;2022-10-30T11:11:49;9.07;;;5.87;;
19509;SDS011;9896;42.486;26.506;2022-10-30T11:14:21;6.57;;;4.30;;
19509;SDS011;9896;42.486;26.506;2022-10-30T11:19:32;7.37;;;4.30;;
19509;SDS011;9896;42.486;26.506;2022-10-30T11:21:58;6.83;;;4.73;;
19509;SDS011;9896;42.486;26.506;2022-10-30T11:26:50;10.93;;;5.07;;
19509;SDS011;9896;42.486;26.506;2022-10-30T11:29:18;10.40;;;5.20;;
19509;SDS011;9896;42.486;26.506;2022-10-30T11:31:57;8.37;;;4.87;;
19509;SDS011;9896;42.486;26.506;2022-10-30T11:34:37;7.57;;;4.97;;
19509;SDS011;9896;42.486;26.506;2022-10-30T11:37:03;8.13;;;5.00;;
19509;SDS011;9896;42.486;26.506;2022-10-30T11:39:30;9.63;;;4.57;;
19509;SDS011;9896;42.486;26.506;2022-10-30T11:42:14;7.20;;;4.83;;
19509;SDS011;9896;42.486;26.506;2022-10-30T11:44:44;7.80;;;4.83;;
19509;SDS011;9896;42.486;26.506;2022-10-30T11:47:12;10.83;;;4.67;;
19509;SDS011;9896;42.486;26.506;2022-10-30T11:49:42;7.93;;;4.30;;
19509;SDS011;9896;42.486;26.506;2022-10-30T11:52:17;9.30;;;5.17;;
19509;SDS011;9896;42.486;26.506;2022-10-30T11:54:46;6.00;;;3.93;;
19509;SDS011;9896;42.486;26.506;2022-10-30T11:57:21;8.77;;;4.73;;
19509;SDS011;9896;42.486;26.506;2022-10-30T11:59:47;8.87;;;4.80;;
19509;SDS011;9896;42.486;26.506;2022-10-30T12:04:52;10.50;;;4.40;;
19509;SDS011;9896;42.486;26.506;2022-10-30T12:07:25;6.97;;;4.10;;
19509;SDS011;9896;42.486;26.506;2022-10-30T12:09:55;6.73;;;4.40;;
19509;SDS011;9896;42.486;26.506;2022-10-30T12:14:51;8.37;;;4.30;;
19509;SDS011;9896;42.486;26.506;2022-10-30T12:17:17;6.57;;;4.30;;
19509;SDS011;9896;42.486;26.506;2022-10-30T12:19:48;7.13;;;4.40;;
19509;SDS011;9896;42.486;26.506;2022-10-30T12:27:56;6.22;;;4.53;;
19509;SDS011;9896;42.486;26.506;2022-10-30T12:30:34;7.20;;;5.27;;
19509;SDS011;9896;42.486;26.506;2022-10-30T12:35:49;10.77;;;5.60;;
19509;SDS011;9896;42.486;26.506;2022-10-30T12:38:41;7.43;;;4.80;;
19509;SDS011;9896;42.486;26.506;2022-10-30T12:41:24;9.53;;;5.40;;
19509;SDS011;9896;42.486;26.506;2022-10-30T12:43:56;6.18;;;4.82;;
19509;SDS011;9896;42.486;26.506;2022-10-30T12:46:37;11.15;;;5.55;;
19509;SDS011;9896;42.486;26.506;2022-10-30T12:49:22;8.05;;;5.00;;
19509;SDS011;9896;42.486;26.506;2022-10-30T12:51:55;9.88;;;4.38;;
19509;SDS011;9896;42.486;26.506;2022-10-30T12:57:35;6.30;;;4.45;;
19509;SDS011;9896;42.486;26.506;2022-10-30T13:00:09;7.28;;;4.40;;
19509;SDS011;9896;42.486;26.506;2022-10-30T13:05:39;9.10;;;3.72;;
19509;SDS011;9896;42.486;26.506;2022-10-30T13:10:45;4.97;;;3.83;;
19509;SDS011;9896;42.486;26.506;2022-10-30T13:13:26;6.35;;;3.78;;
19509;SDS011;9896;42.486;26.506;2022-10-30T13:15:56;6.13;;;3.43;;
19509;SDS011;9896;42.486;26.506;2022-10-30T13:18:24;7.85;;;4.30;;
19509;SDS011;9896;42.486;26.506;2022-10-30T13:23:38;6.03;;;4.35;;
19509;SDS011;9896;42.486;26.506;2022-10-30T13:28:54;6.20;;;3.40;;
19509;SDS011;9896;42.486;26.506;2022-10-30T13:34:54;3.85;;;3.28;;
19509;SDS011;9896;42.486;26.506;2022-10-30T13:37:52;7.25;;;3.60;;
19509;SDS011;9896;42.486;26.506;2022-10-30T13:54:36;4.55;;;3.75;;
19509;SDS011;9896;42.486;26.506;2022-10-30T13:57:30;6.32;;;3.60;;
19509;SDS011;9896;42.486;26.506;2022-10-30T14:00:12;6.80;;;3.90;;
19509;SDS011;9896;42.486;26.506;2022-10-30T14:05:30;5.30;;;3.78;;
19509;SDS011;9896;42.486;26.506;2022-10-30T14:10:59;8.32;;;4.55;;
19509;SDS011;9896;42.486;26.506;2022-10-30T14:13:26;6.68;;;3.83;;
19509;SDS011;9896;42.486;26.506;2022-10-30T14:16:03;8.40;;;4.18;;
19509;SDS011;9896;42.486;26.506;2022-10-30T14:18:58;5.82;;;4.40;;
19509;SDS011;9896;42.486;26.506;2022-10-30T14:21:39;6.88;;;4.03;;
19509;SDS011;9896;42.486;26.506;2022-10-30T14:26:35;5.40;;;3.85;;
19509;SDS011;9896;42.486;26.506;2022-10-30T14:29:28;6.13;;;4.50;;
19509;SDS011;9896;42.486;26.506;2022-10-30T14:31:53;6.53;;;3.55;;
19509;SDS011;9896;42.486;26.506;2022-10-30T14:39:51;5.35;;;3.58;;
19509;SDS011;9896;42.486;26.506;2022-10-30T14:56:06;6.85;;;3.78;;
19509;SDS011;9896;42.486;26.506;2022-10-30T14:58:41;8.48;;;3.90;;
19509;SDS011;9896;42.486;26.506;2022-10-30T15:09:35;5.90;;;3.92;;
19509;SDS011;9896;42.486;26.506;2022-10-30T15:15:04;7.88;;;4.00;;
19509;SDS011;9896;42.486;26.506;2022-10-30T15:17:39;14.10;;;4.53;;
19509;SDS011;9896;42.486;26.506;2022-10-30T15:20:12;8.80;;;3.97;;
19509;SDS011;9896;42.486;26.506;2022-10-30T15:22:39;9.53;;;4.97;;
19509;SDS011;9896;42.486;26.506;2022-10-30T15:25:11;7.32;;;4.53;;
19509;SDS011;9896;42.486;26.506;2022-10-30T15:27:52;10.60;;;4.77;;
19509;SDS011;9896;42.486;26.506;2022-10-30T15:30:21;12.50;;;4.53;;
19509;SDS011;9896;42.486;26.506;2022-10-30T15:32:51;9.93;;;4.40;;
19509;SDS011;9896;42.486;26.506;2022-10-30T15:35:18;14.97;;;6.13;;
19509;SDS011;9896;42.486;26.506;2022-10-30T15:38:02;8.47;;;5.10;;
19509;SDS011;9896;42.486;26.506;2022-10-30T15:40:30;8.03;;;4.17;;
19509;SDS011;9896;42.486;26.506;2022-10-30T15:42:56;10.57;;;4.73;;
19509;SDS011;9896;42.486;26.506;2022-10-30T15:45:29;5.60;;;3.67;;
19509;SDS011;9896;42.486;26.506;2022-10-30T15:50:57;7.30;;;4.20;;
19509;SDS011;9896;42.486;26.506;2022-10-30T15:56:36;18.67;;;6.87;;
19509;SDS011;9896;42.486;26.506;2022-10-30T15:59:06;19.73;;;8.23;;
19509;SDS011;9896;42.486;26.506;2022-10-30T16:01:53;15.37;;;7.73;;
19509;SDS011;9896;42.486;26.506;2022-10-30T16:04:21;11.30;;;7.30;;
19509;SDS011;9896;42.486;26.506;2022-10-30T16:09:18;20.03;;;8.97;;
19509;SDS011;9896;42.486;26.506;2022-10-30T16:11:45;20.53;;;8.40;;
19509;SDS011;9896;42.486;26.506;2022-10-30T16:14:13;19.03;;;9.73;;
19509;SDS011;9896;42.486;26.506;2022-10-30T16:16:45;27.53;;;11.27;;
19509;SDS011;9896;42.486;26.506;2022-10-30T16:19:24;25.60;;;12.30;;
19509;SDS011;9896;42.486;26.506;2022-10-30T16:21:53;23.37;;;12.50;;
19509;SDS011;9896;42.486;26.506;2022-10-30T16:24:30;24.50;;;12.27;;
19509;SDS011;9896;42.486;26.506;2022-10-30T16:27:02;17.13;;;10.57;;
19509;SDS011;9896;42.486;26.506;2022-10-30T16:29:29;23.13;;;11.30;;
19509;SDS011;9896;42.486;26.506;2022-10-30T16:31:57;14.93;;;9.20;;
19509;SDS011;9896;42.486;26.506;2022-10-30T16:36:56;24.37;;;12.90;;
19509;SDS011;9896;42.486;26.506;2022-10-30T16:39:22;27.93;;;13.40;;
19509;SDS011;9896;42.486;26.506;2022-10-30T16:41:50;31.43;;;16.43;;
19509;SDS011;9896;42.486;26.506;2022-10-30T16:44:24;30.80;;;13.50;;
19509;SDS011;9896;42.486;26.506;2022-10-30T16:46:58;28.10;;;12.20;;
19509;SDS011;9896;42.486;26.506;2022-10-30T16:49:56;33.47;;;16.63;;
19509;SDS011;9896;42.486;26.506;2022-10-30T16:52:26;27.67;;;14.67;;
19509;SDS011;9896;42.486;26.506;2022-10-30T16:54:58;29.53;;;16.73;;
19509;SDS011;9896;42.486;26.506;2022-10-30T16:57:28;22.73;;;12.30;;
19509;SDS011;9896;42.486;26.506;2022-10-30T16:59:57;32.67;;;17.23;;
19509;SDS011;9896;42.486;26.506;2022-10-30T17:02:26;35.17;;;17.30;;
19509;SDS011;9896;42.486;26.506;2022-10-30T17:04:55;28.57;;;15.17;;
19509;SDS011;9896;42.486;26.506;2022-10-30T17:07:27;24.87;;;14.07;;
19509;SDS011;9896;42.486;26.506;2022-10-30T17:09:53;41.87;;;18.50;;
19509;SDS011;9896;42.486;26.506;2022-10-30T17:12:27;38.93;;;18.63;;
19509;SDS011;9896;42.486;26.506;2022-10-30T17:17:35;42.57;;;22.17;;